Time;durP1;ratioP1;P1;durP2;ratioP2;P2;SDS_P1;SDS_P2;PMS_P1;PMS_P2;Temp;Humidity;BMP_temperature;BMP_pressure;BME280_temperature;BME280_humidity;BME280_pressure;Samples;Min_cycle;Max_cycle;Signal;HPM_P1;HPM_P2
2022/08/20 00:00:22;;;;;;;21.93;17.87;;;20.20;99.90;;;20.17;100.00;100695.13;5026942;28;20930;-70
2022/08/20 00:02:57;;;;;;;23.33;20.40;;;20.10;99.90;;;20.18;100.00;100692.13;5023189;28;20436;-71
2022/08/20 00:05:31;;;;;;;22.77;18.90;;;20.10;99.90;;;20.20;100.00;100692.66;5027303;28;21009;-70
2022/08/20 00:08:00;;;;;;;23.57;19.13;;;20.10;99.90;;;20.28;100.00;100699.56;5027793;28;20806;-71
2022/08/20 00:10:31;;;;;;;23.17;20.20;;;20.10;99.90;;;20.27;100.00;100701.47;5025456;28;20436;-70
2022/08/20 00:13:01;;;;;;;24.30;19.50;;;20.10;99.90;;;20.19;100.00;100707.47;5028266;28;20435;-70
2022/08/20 00:15:35;;;;;;;26.37;21.57;;;20.10;99.90;;;20.28;100.00;100708.59;5027611;28;20423;-70
2022/08/20 00:18:06;;;;;;;20.87;18.40;;;20.10;99.90;;;20.32;100.00;100720.75;5026936;28;20857;-70
2022/08/20 00:20:39;;;;;;;26.13;21.87;;;20.10;99.90;;;20.19;100.00;100715.72;5027084;28;20443;-70
2022/08/20 00:23:09;;;;;;;23.87;21.40;;;20.00;99.90;;;20.24;100.00;100710.25;5031004;28;20593;-71
2022/08/20 00:25:39;;;;;;;32.87;23.97;;;20.00;99.90;;;20.34;100.00;100710.31;5026417;28;20443;-70
2022/08/20 00:28:10;;;;;;;25.33;19.87;;;20.10;99.90;;;20.41;100.00;100711.97;5030498;28;20729;-71
2022/08/20 00:30:42;;;;;;;24.70;20.27;;;20.20;99.90;;;20.41;100.00;100712.81;5013738;28;20468;-70
2022/08/20 00:33:17;;;;;;;21.40;17.87;;;20.20;99.90;;;20.34;100.00;100720.47;5030654;28;20573;-70
2022/08/20 00:35:51;;;;;;;23.90;19.23;;;20.20;99.90;;;20.35;100.00;100720.22;5031376;28;20449;-70
2022/08/20 00:38:21;;;;;;;26.10;21.63;;;20.20;99.90;;;20.31;100.00;100724.59;5026552;28;20467;-70
2022/08/20 00:40:54;;;;;;;25.87;19.17;;;20.20;99.90;;;20.42;100.00;100711.72;5030449;28;20455;-71
2022/08/20 00:43:35;;;;;;;24.90;20.47;;;20.20;99.90;;;20.37;100.00;100723.53;5025449;28;20456;-71
2022/08/20 00:46:09;;;;;;;26.50;20.67;;;20.20;99.90;;;20.51;100.00;100717.50;5026320;28;20810;-71
2022/08/20 00:48:46;;;;;;;23.50;19.23;;;20.30;99.90;;;20.47;100.00;100716.38;5028215;28;20419;-71
2022/08/20 00:51:26;;;;;;;20.83;18.50;;;20.30;99.90;;;20.45;100.00;100718.56;5030653;28;20418;-71
2022/08/20 00:54:05;;;;;;;26.70;19.27;;;20.30;99.90;;;20.35;100.00;100713.88;5030322;28;20438;-70
2022/08/20 00:56:35;;;;;;;23.10;18.73;;;20.20;99.90;;;20.42;100.00;100708.13;5026542;28;20815;-70
2022/08/20 00:59:10;;;;;;;23.67;17.83;;;20.20;99.90;;;20.45;100.00;100721.31;5029649;28;20462;-70
2022/08/20 01:01:42;;;;;;;24.57;18.27;;;20.30;99.90;;;20.39;100.00;100718.56;5028680;28;20446;-70
2022/08/20 01:04:26;;;;;;;29.00;21.60;;;20.20;99.90;;;20.40;100.00;100713.91;5027624;28;21008;-71
2022/08/20 01:06:56;;;;;;;20.73;17.73;;;20.20;99.90;;;20.36;100.00;100718.28;5027984;28;20454;-71
2022/08/20 01:09:25;;;;;;;22.60;18.27;;;20.20;99.90;;;20.29;100.00;100721.25;5034032;28;20448;-71
2022/08/20 01:12:17;;;;;;;24.33;19.50;;;20.20;99.90;;;20.29;100.00;100721.25;5024559;28;20866;-71
2022/08/20 01:14:47;;;;;;;25.40;18.00;;;20.10;99.90;;;20.42;100.00;100724.63;5031470;28;20468;-71
2022/08/20 01:17:23;;;;;;;23.60;20.57;;;20.20;99.90;;;20.44;100.00;100728.75;5024975;28;20931;-71
2022/08/20 01:20:00;;;;;;;23.27;17.77;;;20.20;99.90;;;20.51;99.42;100729.31;5028413;28;20531;-72
2022/08/20 01:25:41;;;;;;;20.50;17.43;;;20.30;99.90;;;20.57;98.23;100721.91;5031210;28;20436;-71
2022/08/20 01:28:12;;;;;;;18.87;15.97;;;20.40;99.90;;;20.59;97.38;100727.94;5029746;28;20418;-70
2022/08/20 01:30:42;;;;;;;21.83;17.10;;;20.30;99.90;;;20.51;97.75;100728.50;5030598;28;20408;-70
2022/08/20 01:33:12;;;;;;;19.87;17.80;;;20.30;99.90;;;20.45;98.54;100726.81;5028303;28;20459;-70
2022/08/20 01:35:43;;;;;;;21.17;17.60;;;20.30;99.90;;;20.35;97.96;100725.69;5030468;28;20463;-70
2022/08/20 01:38:13;;;;;;;21.87;18.17;;;20.20;99.90;;;20.26;99.08;100727.28;5032203;28;20439;-70
2022/08/20 01:41:04;;;;;;;19.17;17.17;;;20.10;99.90;;;20.39;98.32;100728.72;5030709;28;20876;-71
2022/08/20 01:43:34;;;;;;;24.43;16.70;;;20.20;99.90;;;20.36;98.08;100730.09;5029367;28;20490;-70
2022/08/20 01:46:05;;;;;;;22.50;17.33;;;20.10;99.90;;;20.26;98.80;100732.78;5031437;28;20468;-71
2022/08/20 01:48:35;;;;;;;24.10;19.00;;;20.10;99.90;;;20.30;99.41;100727.56;5033690;28;20436;-71
2022/08/20 01:51:09;;;;;;;20.47;17.67;;;20.10;99.90;;;20.20;100.00;100738.53;5033695;28;20897;-71
2022/08/20 01:53:42;;;;;;;20.30;16.17;;;20.10;99.90;;;20.11;100.00;100730.00;5026872;28;20529;-70
2022/08/20 01:56:17;;;;;;;23.63;17.17;;;20.00;99.90;;;20.06;100.00;100734.63;5024663;28;20463;-70
2022/08/20 01:58:52;;;;;;;16.00;13.87;;;19.90;99.90;;;19.87;100.00;100737.84;5027498;28;20459;-70
2022/08/20 02:01:32;;;;;;;18.43;14.50;;;19.80;99.90;;;19.75;100.00;100736.44;5025774;28;20500;-69
2022/08/20 02:04:16;;;;;;;17.10;14.57;;;19.70;99.90;;;19.68;100.00;100742.16;5045256;28;20535;-69
2022/08/20 02:06:51;;;;;;;17.07;14.33;;;19.60;99.90;;;19.58;100.00;100746.75;5040345;28;20949;-69
2022/08/20 02:09:27;;;;;;;14.47;11.97;;;19.50;99.90;;;19.55;100.00;100748.13;5037613;28;20478;-69
2022/08/20 02:11:58;;;;;;;15.10;13.50;;;19.50;99.90;;;19.49;100.00;100739.00;5039508;28;20687;-69
2022/08/20 02:14:29;;;;;;;14.63;11.87;;;19.40;99.90;;;19.47;100.00;100751.34;5030358;28;20954;-69
2022/08/20 02:16:59;;;;;;;16.60;12.90;;;19.40;99.90;;;19.41;100.00;100747.69;5026865;28;20698;-69
2022/08/20 02:19:39;;;;;;;17.83;13.70;;;19.40;99.90;;;19.39;100.00;100755.38;5029644;28;20440;-69
2022/08/20 02:22:18;;;;;;;16.10;12.97;;;19.30;99.90;;;19.37;100.00;100757.53;5027478;28;20479;-69
2022/08/20 02:24:47;;;;;;;17.10;13.47;;;19.30;99.90;;;19.36;100.00;100760.56;5024211;28;20498;-68
2022/08/20 02:27:18;;;;;;;22.33;17.33;;;19.20;99.90;;;19.41;100.00;100758.66;5028659;28;20783;-68
2022/08/20 02:29:47;;;;;;;22.27;18.73;;;19.30;99.90;;;19.35;100.00;100764.41;5033466;28;20406;-68
2022/08/20 02:32:17;;;;;;;19.93;17.03;;;19.20;99.90;;;19.31;100.00;100758.63;5034211;28;20410;-69
2022/08/20 02:35:02;;;;;;;21.30;17.70;;;19.20;99.90;;;19.26;100.00;100755.84;5030204;28;20542;-68
2022/08/20 02:37:32;;;;;;;24.40;20.50;;;19.20;99.90;;;19.33;100.00;100759.16;5031332;28;20440;-69
2022/08/20 02:40:01;;;;;;;24.80;20.60;;;19.20;99.90;;;19.33;100.00;100761.91;5026773;28;20421;-70
2022/08/20 02:42:32;;;;;;;20.07;16.00;;;19.20;99.90;;;19.43;100.00;100767.47;5026268;28;20475;-69
2022/08/20 02:45:01;;;;;;;23.40;17.93;;;19.30;99.90;;;19.44;100.00;100762.84;5024539;28;20455;-69
2022/08/20 02:47:30;;;;;;;22.43;17.40;;;19.30;99.90;;;19.41;100.00;100766.09;5023653;28;21015;-69
2022/08/20 02:49:59;;;;;;;22.70;18.10;;;19.30;99.90;;;19.42;100.00;100765.81;5028111;28;20443;-69
2022/08/20 02:52:28;;;;;;;27.03;19.47;;;19.30;99.90;;;19.47;100.00;100767.81;5028218;28;20807;-69
2022/08/20 02:54:58;;;;;;;21.93;17.10;;;19.30;99.90;;;19.43;100.00;100762.00;5026733;28;20472;-69
2022/08/20 02:57:28;;;;;;;26.00;17.80;;;19.30;99.90;;;19.50;100.00;100768.13;5025771;28;20437;-68
2022/08/20 03:00:00;;;;;;;27.30;20.57;;;19.40;99.90;;;19.51;100.00;100768.91;5028411;28;20965;-69
2022/08/20 03:02:30;;;;;;;26.27;19.07;;;19.40;99.90;;;19.46;100.00;100761.47;5025704;28;20442;-69
2022/08/20 03:04:59;;;;;;;27.83;21.47;;;19.40;99.90;;;19.54;100.00;100760.19;5028445;28;20455;-69
2022/08/20 03:07:29;;;;;;;24.60;18.40;;;19.40;99.90;;;19.55;100.00;100758.25;5023800;28;20793;-70
2022/08/20 03:09:58;;;;;;;31.30;19.03;;;19.40;99.90;;;19.61;100.00;100752.53;5028598;28;20472;-70
2022/08/20 03:12:27;;;;;;;28.93;20.10;;;19.40;99.90;;;19.59;100.00;100749.22;5022500;28;20432;-68
2022/08/20 03:14:56;;;;;;;25.70;18.63;;;19.40;99.90;;;19.58;100.00;100746.75;5009591;28;20472;-69
2022/08/20 03:17:26;;;;;;;28.40;20.70;;;19.40;99.90;;;19.52;100.00;100738.47;5023396;28;20832;-68
2022/08/20 03:19:55;;;;;;;27.83;20.87;;;19.40;99.90;;;19.59;100.00;100742.91;5028100;28;20535;-69
2022/08/20 03:22:24;;;;;;;30.30;21.57;;;19.40;99.90;;;19.56;100.00;100740.72;5027042;28;20472;-69
2022/08/20 03:24:54;;;;;;;28.30;22.17;;;19.40;99.90;;;19.58;100.00;100739.34;5025566;28;20445;-69
2022/08/20 03:27:23;;;;;;;39.30;22.13;;;19.40;99.90;;;19.61;100.00;100737.97;5025994;28;20440;-69
2022/08/20 03:30:00;;;;;;;34.20;22.93;;;19.50;99.90;;;19.63;100.00;100735.78;5008760;28;20425;-69
2022/08/20 03:32:31;;;;;;;42.73;24.30;;;19.50;99.90;;;19.64;100.00;100740.19;5027966;28;20543;-70
2022/08/20 03:35:00;;;;;;;31.20;19.97;;;19.50;99.90;;;19.59;100.00;100731.94;5025436;28;20836;-70
2022/08/20 03:37:32;;;;;;;28.13;22.83;;;19.40;99.90;;;19.61;100.00;100735.22;5025148;28;20410;-70
2022/08/20 03:40:06;;;;;;;34.20;25.60;;;19.40;99.90;;;19.64;100.00;100731.97;5027350;28;20435;-70
2022/08/20 03:42:35;;;;;;;39.97;25.53;;;19.40;99.90;;;19.71;100.00;100724.31;5026888;28;20973;-70
2022/08/20 03:45:06;;;;;;;35.60;24.03;;;19.50;99.90;;;19.72;100.00;100731.44;5028262;28;20448;-69
2022/08/20 03:47:37;;;;;;;36.80;24.37;;;19.50;99.90;;;19.72;100.00;100724.03;5031329;28;20417;-69
2022/08/20 03:50:09;;;;;;;36.57;26.27;;;19.50;99.90;;;19.74;100.00;100729.28;5032238;28;20414;-70
2022/08/20 03:52:50;;;;;;;40.10;27.93;;;19.50;99.90;;;19.74;100.00;100730.09;5029579;28;20436;-70
2022/08/20 03:55:22;;;;;;;36.60;25.37;;;19.50;99.90;;;19.65;100.00;100739.13;5015297;28;20430;-71
2022/08/20 03:57:55;;;;;;;33.47;26.20;;;19.50;99.90;;;19.73;100.00;100738.59;5012420;28;20458;-70
2022/08/20 04:00:33;;;;;;;36.37;26.57;;;19.50;99.90;;;19.80;100.00;100744.69;5031728;28;20435;-69
2022/08/20 04:03:04;;;;;;;37.40;25.60;;;19.60;99.90;;;19.83;100.00;100750.47;5031399;28;20490;-70
2022/08/20 04:05:35;;;;;;;33.73;26.60;;;19.60;99.90;;;19.74;100.00;100745.75;5031163;28;21012;-70
2022/08/20 04:08:07;;;;;;;31.70;25.27;;;19.60;99.90;;;19.79;100.00;100748.53;5009186;28;20456;-69
2022/08/20 04:10:37;;;;;;;29.97;23.50;;;19.60;99.90;;;19.81;100.00;100746.31;5031811;28;20787;-69
2022/08/20 04:13:07;;;;;;;39.27;25.97;;;19.60;99.90;;;19.84;100.00;100751.31;5031352;28;20439;-69
2022/08/20 04:15:37;;;;;;;36.77;25.67;;;19.60;99.90;;;19.82;100.00;100748.81;5032272;28;20431;-70
2022/08/20 04:18:10;;;;;;;31.87;23.60;;;19.60;99.90;;;19.74;100.00;100754.00;5028904;28;20487;-70
2022/08/20 04:20:43;;;;;;;31.63;22.53;;;19.60;99.90;;;19.78;100.00;100757.84;5032677;28;20442;-70
2022/08/20 04:23:12;;;;;;;34.33;25.23;;;19.60;99.90;;;19.77;100.00;100764.44;5020556;28;20855;-70
2022/08/20 04:25:44;;;;;;;37.00;27.70;;;19.60;99.90;;;19.72;100.00;100764.41;5032721;28;20436;-71
2022/08/20 04:28:20;;;;;;;30.97;24.37;;;19.60;99.90;;;19.70;100.00;100759.19;5006243;28;20931;-70
2022/08/20 04:30:50;;;;;;;29.93;21.57;;;19.60;99.90;;;19.77;100.00;100758.94;5030415;28;20426;-70
2022/08/20 04:33:23;;;;;;;36.57;25.20;;;19.60;99.90;;;19.83;100.00;100755.97;5010782;28;20466;-70
2022/08/20 04:36:05;;;;;;;37.60;25.97;;;19.60;99.90;;;19.79;100.00;100749.34;5031695;28;20984;-70
2022/08/20 04:38:35;;;;;;;29.27;23.07;;;19.60;99.90;;;19.78;100.00;100753.19;5031249;28;20450;-70
2022/08/20 04:41:18;;;;;;;37.40;25.80;;;19.60;99.90;;;19.76;100.00;100754.53;5009997;28;20803;-69
2022/08/20 04:43:53;;;;;;;38.57;27.50;;;19.60;99.90;;;19.75;100.00;100761.13;5030762;28;20462;-69
2022/08/20 04:46:27;;;;;;;37.47;25.53;;;19.60;99.90;;;19.83;100.00;100755.13;5027116;28;20509;-69
2022/08/20 04:48:59;;;;;;;34.23;24.27;;;19.60;99.90;;;19.86;100.00;100746.34;5031497;28;20508;-70
2022/08/20 04:51:28;;;;;;;34.83;25.27;;;19.70;99.90;;;19.77;100.00;100762.50;5032442;28;20443;-71
2022/08/20 04:54:01;;;;;;;28.77;22.60;;;19.60;99.90;;;19.77;100.00;100761.69;5029892;28;20436;-71
2022/08/20 04:56:38;;;;;;;28.30;22.87;;;19.60;99.90;;;19.85;100.00;100769.41;5076140;22;20526;-73
2022/08/20 04:59:08;;;;;;;33.27;24.53;;;19.60;99.90;;;19.78;100.00;100766.09;5058235;28;20902;-73
2022/08/20 05:01:37;;;;;;;34.90;24.47;;;19.60;99.90;;;19.75;100.00;100769.38;5065769;28;20442;-72
2022/08/20 05:04:07;;;;;;;31.83;25.30;;;19.60;99.90;;;19.83;100.00;100769.69;5049700;28;21007;-72
2022/08/20 05:06:37;;;;;;;32.67;23.90;;;19.60;99.90;;;19.83;100.00;100769.69;5046165;28;20450;-74
2022/08/20 05:09:06;;;;;;;34.40;25.47;;;19.60;99.90;;;19.86;100.00;100771.06;5068175;28;20479;-70
2022/08/20 05:11:35;;;;;;;37.60;22.93;;;19.70;99.90;;;19.87;100.00;100776.31;5067896;28;20531;-74
2022/08/20 05:14:08;;;;;;;33.50;24.43;;;19.60;99.90;;;19.89;100.00;100781.53;5067197;28;20800;-70
2022/08/20 05:16:39;;;;;;;29.20;21.23;;;19.70;99.90;;;19.83;100.00;100783.41;5049771;28;20425;-74
2022/08/20 05:19:13;;;;;;;30.80;22.77;;;19.70;99.90;;;19.90;100.00;100791.41;5064529;28;20445;-71
2022/08/20 05:21:42;;;;;;;25.40;21.07;;;19.70;99.90;;;19.91;100.00;100795.81;5067922;28;20446;-74
2022/08/20 05:24:11;;;;;;;31.07;22.17;;;19.70;99.90;;;19.89;100.00;100792.53;5065263;28;20505;-71
2022/08/20 05:26:41;;;;;;;26.37;21.43;;;19.70;99.90;;;19.89;100.00;100790.59;5066907;28;20957;-74
2022/08/20 05:29:10;;;;;;;28.50;21.37;;;19.70;99.90;;;19.99;100.00;100786.25;5073247;28;20811;-73
2022/08/20 05:31:40;;;;;;;30.00;22.17;;;19.70;99.90;;;19.96;100.00;100780.19;5048059;28;20422;-73
2022/08/20 05:34:12;;;;;;;29.47;22.50;;;19.80;99.90;;;19.94;100.00;100782.38;5054191;28;20469;-73
2022/08/20 05:36:45;;;;;;;34.33;24.60;;;19.70;99.90;;;20.01;100.00;100779.38;5065805;28;20795;-70
2022/08/20 05:39:18;;;;;;;27.70;22.90;;;19.80;99.90;;;19.93;100.00;100788.97;5042257;28;20484;-75
2022/08/20 05:41:50;;;;;;;29.40;22.40;;;19.70;99.90;;;19.98;100.00;100788.16;5062397;28;20594;-74
2022/08/20 05:44:20;;;;;;;34.07;22.77;;;19.80;99.90;;;19.94;100.00;100789.81;5042533;28;20453;-74
2022/08/20 05:46:49;;;;;;;30.00;23.57;;;19.70;99.90;;;20.06;100.00;100792.31;5052595;28;20845;-74
2022/08/20 05:49:21;;;;;;;28.07;22.60;;;19.80;99.90;;;20.17;100.00;100785.78;5052314;28;20819;-74
2022/08/20 05:51:51;;;;;;;29.60;24.00;;;19.90;99.90;;;20.08;100.00;100796.47;5072138;28;20434;-72
2022/08/20 05:54:20;;;;;;;29.47;23.57;;;19.90;99.90;;;20.03;100.00;100806.59;5068634;28;20540;-74
2022/08/20 05:56:50;;;;;;;33.53;25.60;;;19.80;99.90;;;20.00;100.00;100799.69;5066605;28;20812;-77
2022/08/20 05:59:21;;;;;;;26.80;22.00;;;19.80;99.90;;;20.09;100.00;100798.09;5066422;28;20466;-72
2022/08/20 06:01:52;;;;;;;37.13;24.80;;;19.90;99.90;;;20.14;100.00;100792.63;5051369;28;20438;-74
2022/08/20 06:04:26;;;;;;;31.37;23.03;;;19.90;99.90;;;20.17;100.00;100794.84;5064415;28;20564;-73
2022/08/20 06:07:04;;;;;;;26.43;23.20;;;20.00;99.90;;;20.21;100.00;100795.13;5069431;28;20412;-76
2022/08/20 06:09:35;;;;;;;30.23;22.73;;;20.00;99.90;;;20.24;98.85;100792.66;5065800;28;20609;-74
2022/08/20 06:12:07;;;;;;;36.03;23.57;;;20.00;99.90;;;20.24;99.36;100795.41;5054660;28;20435;-73
2022/08/20 06:14:37;;;;;;;27.67;22.30;;;20.00;99.90;;;20.29;98.78;100800.94;5051139;28;20476;-73
2022/08/20 06:17:10;;;;;;;29.87;23.07;;;20.00;99.90;;;20.25;98.30;100797.09;5050907;28;20454;-73
2022/08/20 06:19:45;;;;;;;36.67;24.70;;;20.00;99.90;;;20.24;98.71;100808.31;5051816;28;20438;-73
2022/08/20 06:22:16;;;;;;;27.43;21.37;;;20.00;99.90;;;20.43;98.67;100811.50;5043302;28;20447;-71
2022/08/20 06:24:55;;;;;;;31.67;24.43;;;20.10;99.90;;;20.33;97.67;100810.31;5049312;28;20474;-73
2022/08/20 06:27:25;;;;;;;30.60;25.60;;;20.10;99.90;;;20.43;97.25;100812.28;5046403;28;20459;-73
2022/08/20 06:29:54;;;;;;;33.00;24.23;;;20.20;99.90;;;20.42;97.40;100812.56;5068651;28;20446;-73
2022/08/20 06:32:25;;;;;;;27.90;23.10;;;20.20;99.90;;;20.51;97.41;100810.97;5064734;28;20575;-73
2022/08/20 06:35:03;;;;;;;28.53;22.10;;;20.20;99.90;;;20.54;96.74;100821.41;5050012;28;20472;-73
2022/08/20 06:37:35;;;;;;;32.33;24.13;;;20.30;99.90;;;20.44;97.33;100821.38;5048704;28;20439;-74
2022/08/20 06:40:10;;;;;;;28.27;23.93;;;20.20;99.90;;;20.64;97.41;100826.94;5066233;28;20531;-74
2022/08/20 06:42:42;;;;;;;28.43;24.07;;;20.30;99.90;;;20.57;96.00;100826.38;5043910;28;20454;-72
2022/08/20 06:45:20;;;;;;;29.10;23.00;;;20.30;99.90;;;20.56;96.57;100835.72;5068013;28;20832;-74
2022/08/20 06:47:50;;;;;;;29.30;25.80;;;20.40;99.90;;;20.49;97.36;100835.97;5050766;28;20428;-74
2022/08/20 06:50:24;;;;;;;39.37;24.40;;;20.30;99.90;;;20.56;97.68;100839.28;5059459;28;20516;-76
2022/08/20 06:52:56;;;;;;;32.10;23.50;;;20.30;99.90;;;20.54;97.25;100835.16;5067512;28;20973;-74
2022/08/20 06:55:27;;;;;;;30.97;24.60;;;20.30;99.90;;;20.54;97.21;100837.91;5063255;28;20450;-72
2022/08/20 06:58:01;;;;;;;30.37;26.20;;;20.30;99.90;;;20.53;97.24;100838.97;5059882;28;20492;-71
2022/08/20 07:00:32;;;;;;;33.50;25.27;;;20.40;99.90;;;20.50;97.31;100832.13;5046556;28;20438;-75
2022/08/20 07:03:03;;;;;;;31.30;24.77;;;20.30;99.90;;;20.56;96.85;100835.72;5068608;28;20438;-74
2022/08/20 07:05:41;;;;;;;28.77;23.23;;;20.30;99.90;;;20.38;97.29;100835.09;5064268;28;20462;-74
2022/08/20 07:08:12;;;;;;;34.50;24.90;;;20.30;99.90;;;20.40;98.13;100832.06;5048169;28;20461;-73
2022/08/20 07:10:42;;;;;;;34.53;26.13;;;20.20;99.90;;;20.44;97.50;100838.69;5045054;28;20945;-72
2022/08/20 07:13:15;;;;;;;35.63;25.50;;;20.20;99.90;;;20.43;97.65;100847.22;5069835;28;20511;-73
2022/08/20 07:15:45;;;;;;;36.50;27.40;;;20.30;99.90;;;20.54;97.32;100848.91;5060849;28;20442;-72
2022/08/20 07:18:15;;;;;;;35.30;24.40;;;20.30;99.90;;;20.48;97.96;100847.25;5047725;28;20446;-72
2022/08/20 07:20:58;;;;;;;34.60;23.50;;;20.30;99.90;;;20.51;97.63;100852.19;5048894;28;20449;-72
2022/08/20 07:23:30;;;;;;;33.37;24.70;;;20.30;99.90;;;20.46;96.40;100860.41;5042645;28;20481;-71
2022/08/20 07:25:59;;;;;;;32.90;27.00;;;20.20;99.90;;;20.48;96.96;100864.53;5040653;28;20540;-72
2022/08/20 07:28:30;;;;;;;32.20;24.97;;;20.30;99.90;;;20.33;96.73;100864.50;5066084;28;20948;-72
2022/08/20 07:33:48;;;;;;;27.77;24.43;;;20.20;99.90;;;20.44;96.52;100876.34;5065069;28;20489;-73
2022/08/20 07:36:19;;;;;;;43.03;30.50;;;20.30;99.90;;;20.60;96.33;100881.66;5062072;28;20924;-71
2022/08/20 07:38:49;;;;;;;33.57;26.60;;;20.30;99.90;;;20.81;96.10;100879.81;5059173;28;20669;-72
2022/08/20 07:41:19;;;;;;;36.53;26.83;;;20.40;99.90;;;20.80;95.00;100887.22;5062473;28;20441;-71
2022/08/20 07:43:49;;;;;;;36.90;25.77;;;20.50;99.90;;;20.60;94.85;100880.81;5058681;28;20432;-73
2022/08/20 07:46:20;;;;;;;37.43;26.47;;;20.40;99.90;;;20.62;95.87;100889.63;5056079;28;20414;-73
2022/08/20 07:48:50;;;;;;;35.23;25.90;;;20.40;99.90;;;20.54;96.57;100888.22;5067504;28;20937;-72
2022/08/20 07:51:22;;;;;;;36.20;27.37;;;20.40;99.90;;;20.60;96.48;100886.31;5067269;28;20810;-72
2022/08/20 07:53:52;;;;;;;34.63;26.03;;;20.40;99.90;;;20.52;95.58;100886.84;5042338;28;20580;-71
2022/08/20 07:56:24;;;;;;;32.80;24.90;;;20.30;99.90;;;20.59;95.46;100879.97;5070056;28;20454;-71
2022/08/20 07:58:57;;;;;;;32.93;27.57;;;20.40;99.90;;;20.59;95.75;100879.16;5067427;28;20438;-72
2022/08/20 08:01:30;;;;;;;31.93;25.60;;;20.40;99.90;;;20.68;95.81;100874.78;5064594;28;20818;-72
2022/08/20 08:04:00;;;;;;;41.57;30.03;;;20.40;99.90;;;20.67;94.25;100873.16;5065642;28;20557;-73
2022/08/20 08:06:32;;;;;;;35.10;28.10;;;20.40;99.90;;;20.59;94.95;100876.41;5065060;28;20478;-73
2022/08/20 08:09:07;;;;;;;40.67;27.50;;;20.40;99.90;;;20.56;96.29;100882.44;5059792;28;20960;-72
2022/08/20 08:11:40;;;;;;;35.73;25.00;;;20.40;99.90;;;20.69;95.91;100890.19;5051772;28;20533;-72
2022/08/20 08:14:18;;;;;;;38.47;29.77;;;20.40;99.90;;;20.77;94.87;100889.66;5043366;28;20893;-73
2022/08/20 08:16:47;;;;;;;41.67;29.67;;;20.50;99.90;;;21.03;95.00;100891.41;5063306;28;20425;-71
2022/08/20 08:19:19;;;;;;;38.00;27.60;;;20.70;99.90;;;20.92;94.49;100889.72;5049337;28;20546;-72
2022/08/20 08:21:49;;;;;;;32.20;26.20;;;20.70;99.90;;;20.92;93.75;100895.22;5048363;28;20465;-72
2022/08/20 08:24:19;;;;;;;40.00;29.83;;;20.70;99.90;;;20.95;94.57;100894.69;5040396;28;20475;-71
2022/08/20 08:26:53;;;;;;;40.47;29.57;;;20.70;99.90;;;20.93;94.72;100893.31;5048280;28;20425;-73
2022/08/20 08:29:22;;;;;;;37.67;29.07;;;20.70;99.90;;;20.93;95.34;100896.88;5068986;28;20493;-72
2022/08/20 08:31:51;;;;;;;35.00;28.07;;;20.70;99.90;;;21.00;94.14;100902.97;5065996;28;20425;-72
2022/08/20 08:34:21;;;;;;;40.80;29.00;;;20.80;99.90;;;21.07;94.15;100913.69;5050961;28;20909;-71
2022/08/20 08:36:52;;;;;;;35.73;28.37;;;20.80;99.90;;;21.09;93.27;100906.84;5049546;28;20443;-71
2022/08/20 08:39:23;;;;;;;39.17;28.00;;;20.90;99.90;;;21.17;93.20;100900.81;5062548;28;20434;-72
2022/08/20 08:42:03;;;;;;;37.23;30.10;;;20.90;99.90;;;21.09;94.03;100897.75;5067260;28;20442;-70
2022/08/20 08:44:41;;;;;;;38.10;28.40;;;20.90;99.90;;;21.08;93.36;100899.69;5053239;28;20459;-71
2022/08/20 08:47:20;;;;;;;39.00;27.97;;;20.90;99.90;;;20.97;93.47;100903.50;5066351;28;20742;-71
2022/08/20 08:49:49;;;;;;;38.83;31.57;;;20.80;99.90;;;21.07;93.54;100899.94;5046245;28;20450;-72
2022/08/20 08:52:24;;;;;;;41.60;30.63;;;20.80;99.90;;;21.08;94.96;100899.69;5046574;28;20571;-74
2022/08/20 08:54:59;;;;;;;43.00;31.00;;;20.90;99.90;;;21.24;93.04;100904.16;5065515;28;20458;-74
2022/08/20 08:57:28;;;;;;;34.30;27.93;;;20.90;99.90;;;21.31;92.66;100903.88;5071217;28;20441;-74
2022/08/20 09:00:02;;;;;;;37.10;29.77;;;21.00;99.90;;;21.62;90.69;100899.22;5051239;28;20477;-74
2022/08/20 09:02:37;;;;;;;33.50;26.60;;;21.20;99.90;;;21.90;88.44;100895.91;5066622;28;20537;-72
2022/08/20 09:05:17;;;;;;;34.37;28.00;;;21.40;99.90;;;22.12;86.82;100897.56;5063932;28;20513;-73
2022/08/20 09:07:52;;;;;;;34.90;28.00;;;21.60;99.90;;;22.18;87.56;100890.94;5068473;28;20424;-74
2022/08/20 09:10:22;;;;;;;35.83;28.83;;;21.70;99.90;;;22.45;84.72;100902.44;5062627;28;20519;-75
2022/08/20 09:12:52;;;;;;;38.97;28.00;;;22.00;99.90;;;22.08;85.48;100913.81;5052849;28;20442;-73
2022/08/20 09:15:21;;;;;;;35.83;26.77;;;21.80;99.90;;;21.97;85.83;100913.03;5061538;28;20885;-73
2022/08/20 09:17:50;;;;;;;38.07;27.20;;;21.80;99.90;;;21.99;85.38;100921.81;5066033;28;20792;-74
2022/08/20 09:20:20;;;;;;;33.50;27.37;;;21.80;99.90;;;22.02;87.29;100915.78;5049649;28;20446;-74
2022/08/20 09:22:56;;;;;;;37.60;26.57;;;21.70;99.90;;;22.21;85.95;100917.94;5065419;28;20537;-75
2022/08/20 09:25:26;;;;;;;37.63;30.23;;;21.80;99.90;;;22.05;86.77;100926.22;5071415;28;20445;-73
2022/08/20 09:27:55;;;;;;;39.50;30.10;;;21.80;99.90;;;22.20;86.66;100927.31;5070896;28;20535;-72
2022/08/20 09:30:24;;;;;;;32.90;26.30;;;21.80;99.90;;;22.09;86.55;100927.31;5066970;28;20460;-73
2022/08/20 09:32:53;;;;;;;39.80;29.70;;;21.80;99.90;;;22.08;86.58;100922.91;5067173;28;20431;-74
2022/08/20 09:35:23;;;;;;;34.73;27.47;;;21.80;99.90;;;22.25;87.07;100932.81;5072346;28;20437;-72
2022/08/20 09:37:52;;;;;;;43.70;28.53;;;21.90;99.90;;;22.25;86.14;100930.88;5070919;28;20461;-73
2022/08/20 09:40:23;;;;;;;35.03;28.73;;;21.90;99.90;;;22.15;85.93;100927.31;5067019;28;20525;-74
2022/08/20 09:42:52;;;;;;;41.40;27.90;;;21.90;99.90;;;21.81;87.64;100925.13;5069014;28;20542;-74
2022/08/20 09:45:22;;;;;;;34.70;27.67;;;21.70;99.90;;;22.13;87.50;100926.75;5067079;28;20769;-73
2022/08/20 09:47:51;;;;;;;43.40;28.77;;;21.70;99.90;;;21.97;86.53;100929.56;5072692;28;20417;-74
2022/08/20 09:50:33;;;;;;;43.00;28.90;;;21.70;99.90;;;22.07;85.81;100937.00;5069450;28;20426;-73
2022/08/20 09:53:06;;;;;;;34.73;28.10;;;21.80;99.90;;;22.22;84.83;100930.63;5069784;28;20454;-75
2022/08/20 09:55:40;;;;;;;33.67;27.30;;;21.80;99.90;;;22.51;82.09;100929.72;5051903;28;20463;-73
2022/08/20 09:58:22;;;;;;;29.00;24.07;;;22.10;99.90;;;22.16;82.13;100931.72;5061920;28;20812;-74
2022/08/20 10:00:51;;;;;;;33.40;23.83;;;22.10;99.90;;;22.29;83.13;100929.22;5067110;28;20426;-73
2022/08/20 10:03:20;;;;;;;31.93;25.70;;;22.00;99.90;;;22.42;82.98;100925.03;5070704;28;20473;-72
2022/08/20 10:05:49;;;;;;;29.07;25.73;;;22.10;99.90;;;22.50;82.09;100930.00;5069932;28;20474;-73
2022/08/20 10:08:19;;;;;;;29.83;23.97;;;22.20;99.90;;;22.34;79.39;100934.72;5070070;28;20430;-73
2022/08/20 10:10:49;;;;;;;27.50;23.37;;;22.10;99.90;;;22.50;79.74;100932.75;5050787;28;20446;-74
2022/08/20 10:13:18;;;;;;;26.67;22.53;;;22.10;99.90;;;22.33;80.74;100930.31;5057180;28;20471;-74
2022/08/20 10:15:47;;;;;;;26.97;21.07;;;22.10;99.90;;;22.35;80.66;100928.13;5052055;28;20442;-74
2022/08/20 10:18:16;;;;;;;25.40;20.13;;;22.10;99.90;;;22.40;79.66;100921.75;5072291;28;20442;-74
2022/08/20 10:20:46;;;;;;;26.30;22.10;;;22.10;99.90;;;22.85;77.62;100921.59;5068520;28;20628;-73